Terminal Aerodrome Forecast
Issued by NWS

Home | Current Version | Previous Version | Text Only | Print | Product List | Glossary On
Versions: 1 2 3 4 5 6 7 8 9 10 11 12 13 14 15 16 17 18
131
FTPA31 PHFO 291733
TAFHJR
TAF
PHJR 291733Z 2918/3018 06005KT P6SM FEW045
     FM292100 09010G16KT P6SM FEW035 SCT080
     FM300500 06005KT P6SM FEW035=

USA.gov is the U.S. government's official web portal to all federal, state and local government web resources and services.